Jarrettsville, MD (21084)

2:26 AM EDT on September 02, 2015 (GMT -0400)
Jarrettsville | | Change Station
CLOSE
Current Station
Personal Weather Station
Location: Jarrettsville, MD
Elevation: 627 ft
Nearby Weather Stations

Elev 627 ft 39.60 °N, 76.47 °W | Updated 2 seconds ago

Clear
Clear
66.6 °F
Feels Like 66.6 °F
N
0.0
Wind Variable Wind from North
Gusts 0.0 mph

Today
High -- | Low -- °F
--% Chance of Precip.
Yesterday
High -- | Low -- °F
Precip. -- in
6:34 AM 7:35 PM
Waning Gibbous, 83% visible
Pressure 30.07 in
Visibility 10.0 miles
Clouds Clear
Dew Point 64 °F
Humidity 91%
Rainfall 0.00 in
Snow Depth Not available.
UV 0 out of 12
Pollen 9.80 out of 12
Air Quality Not available.
Flu Activity Not available.
METAR KDMW 020620Z AUTO 00000KT 10SM CLR 21/19 A3007 RMK AO2
Pressure 30.07 in
Visibility 10.0 miles
Clouds Clear
Dew Point 64 °F
Humidity 91%
Rainfall 0.00 in
Snow Depth Not available.
UV 0 out of 12
Pollen 9.80 out of 12
Air Quality Not available.
Flu Activity Not available.
METAR KDMW 020620Z AUTO 00000KT 10SM CLR 21/19 A3007 RMK AO2

10-Day Weather Forecast

×

Almanac

Astronomy

Sep. 02, 2015 Rise Set
Actual Time
Civil Twilight
Nautical Twilight
Astronomical Twilight
Moon
Length of Visible Light
Length of Day
Tomorrow will be .
, % of the Moon is Illuminated

Today's Extremes

State Highs State Lows

Community

WunderPhotos

Upload Photos

1,851,709 photos uploaded!

WunderBlogs® & News

Nearby

Air Quality

  Air Quality AQ Index Pollutant
Not available.

Snow Depth

Station Depth Elevation

Earthquake Activity

City Distance Mag. Time & Date
Minimum magnitude displayed is 2.5.

Coastal Water Temperatures

Place Temperature

Stations

Nearby Weather Stations

Station Location Temp. Windchill Dew Point Humidity Wind Precip. Elev Updated Type